Latest Weather Observations for Larapuna (Eddystone Point)

IDT60801

Issued at 6:05 pm EDT Friday 28 November 2014 (issued every 30 minutes, with the page automatically refreshed every 10 minutes)

About weather observations | Map of weather stations | Latest weather observations for TAS | Other Formats
Station Details ID: 092045 Name: LARAPUNA (EDDYSTONE POINT) Lat: -40.99 Lon: 148.35 Height: 19.7 m
Data from the previous 72 hours. | See also: Recent months at Larapuna (Eddystone Point)
Date/Time
EDT
Temp
°C
App
Temp
°C
Dew
Point
Rel
Hum
%
Delta-T
°C
Wind Press
QNH
hPa
Press
MSL
hPa
Rain
since 9 am
mm
Dir
 
Spd
km/h
Gust
km/h
Spd
kts
Gust
kts
28/06:00pm 15.5 10.6 11.3 76 2.2 N 28 35 15 19 1019.7 1019.7 0.0
28/05:30pm 15.4 9.5 11.0 75 2.3 N 33 41 18 22 1019.6 1019.6 0.0
28/05:00pm 16.0 9.4 11.2 73 2.6 N 37 46 20 25 1019.5 1019.5 0.0
28/04:30pm 16.6 9.8 10.7 68 3.1 N 37 44 20 24 1019.7 1019.7 0.0
28/04:00pm 16.5 10.2 11.2 71 2.8 N 35 44 19 24 1020.1 1020.1 0.0
28/03:30pm 16.7 9.5 10.5 67 3.3 N 39 48 21 26 1020.1 1020.1 0.0
28/03:00pm 16.9 10.8 10.5 66 3.4 N 33 43 18 23 1020.4 1020.4 0.0
28/02:30pm 16.9 11.4 10.7 67 3.3 N 30 39 16 21 1020.8 1020.8 0.0
28/02:00pm 17.8 11.9 11.1 65 3.6 N 33 41 18 22 1021.0 1021.0 0.0
28/01:30pm 17.5 11.7 10.9 65 3.6 N 32 39 17 21 1021.2 1021.2 0.0
28/01:00pm 17.6 12.3 10.0 61 4.0 N 28 33 15 18 1021.5 1021.5 0.0
28/12:30pm 18.3 13.0 11.1 63 3.9 N 30 35 16 19 1021.8 1021.8 0.0
28/12:00pm 16.9 11.8 10.7 67 3.3 N 28 35 15 19 1022.0 1022.0 0.0
28/11:30am 17.4 12.1 11.4 68 3.3 N 30 35 16 19 1022.2 1022.2 0.0
28/11:00am 17.7 13.3 11.7 68 3.3 N 26 30 14 16 1022.5 1022.5 0.0
28/10:30am 17.5 13.6 10.9 65 3.6 N 22 28 12 15 1022.8 1022.8 0.0
28/10:00am 15.9 12.2 9.6 66 3.3 N 19 22 10 12 1023.1 1023.1 0.0
28/09:30am 16.9 13.5 10.7 67 3.3 N 19 24 10 13 1023.1 1023.1 0.0
28/09:00am 17.2 14.2 10.6 65 3.5 N 17 20 9 11 1023.4 1023.4 0.0
28/08:30am 15.9 14.0 10.4 70 2.9 N 11 15 6 8 1023.5 1023.5 0.0
28/08:00am 15.0 13.9 10.6 75 2.3 W 7 11 4 6 1023.3 1023.3 0.0
28/07:30am 13.9 12.9 10.9 82 1.6 SW 7 7 4 4 1023.2 1023.2 0.0
28/07:00am 12.8 11.6 10.3 85 1.3 SW 7 11 4 6 1023.2 1023.2 0.0
28/06:30am 12.4 11.1 10.1 86 1.2 SSW 7 9 4 5 1022.9 1022.9 0.0
28/06:00am 12.1 10.4 9.7 85 1.2 SW 9 9 5 5 1022.9 1022.9 0.0
28/05:30am 11.7 10.1 8.6 81 1.5 SW 7 9 4 5 1022.7 1022.7 0.0
28/05:00am 11.8 9.6 7.7 76 2.0 WNW 9 9 5 5 1022.8 1022.8 0.0
28/04:30am 12.3 9.8 8.0 75 2.1 NNW 11 15 6 8 1022.6 1022.6 0.0
28/04:00am 13.9 11.6 9.1 73 2.4 N 11 15 6 8 1022.7 1022.7 0.0
28/03:30am 13.6 11.3 8.9 73 2.4 NNE 11 15 6 8 1022.8 1022.8 0.0
28/03:00am 13.6 10.5 8.9 73 2.4 NNE 15 17 8 9 1022.8 1022.8 0.0
28/02:30am 13.9 10.8 8.9 72 2.5 NNE 15 19 8 10 1022.9 1022.9 0.0
28/02:00am 13.7 10.6 9.0 73 2.4 NNE 15 17 8 9 1023.2 1023.2 0.0
28/01:30am 13.8 11.1 8.8 72 2.5 NE 13 15 7 8 1023.6 1023.6 0.0
28/01:00am 13.7 10.6 9.0 73 2.4 NE 15 19 8 10 1023.7 1023.7 0.0
28/12:30am 13.5 10.7 8.6 72 2.5 NE 13 17 7 9 1024.1 1024.1 0.0
28/12:00am 13.6 10.8 8.4 71 2.6 NE 13 17 7 9 1024.3 1024.3 0.0
 
Date/Time
EDT
Temp
°C
App
Temp
°C
Dew
Point
Rel
Hum
%
Delta-T
°C
Wind Press
QNH
hPa
Press
MSL
hPa
Rain
since 9 am
mm
Dir
 
Spd
km/h
Gust
km/h
Spd
kts
Gust
kts
27/11:30pm 13.8 11.1 8.8 72 2.5 ENE 13 15 7 8 1024.5 1024.5 0.0
27/11:00pm 13.8 11.0 8.6 71 2.6 ENE 13 15 7 8 1024.4 1024.4 0.0
27/10:30pm 13.8 11.0 8.6 71 2.6 ENE 13 17 7 9 1024.6 1024.6 0.0
27/10:00pm 13.7 11.2 8.3 70 2.7 E 11 15 6 8 1024.7 1024.7 0.0
27/09:30pm 13.5 10.6 8.1 70 2.7 E 13 17 7 9 1024.7 1024.7 0.0
27/09:00pm 13.5 10.8 7.3 66 3.0 E 11 15 6 8 1024.4 1024.4 0.0
27/08:30pm 13.7 10.7 7.7 67 3.0 E 13 17 7 9 1024.4 1024.4 0.0
27/08:00pm 13.6 9.8 7.6 67 2.9 ESE 17 20 9 11 1024.4 1024.4 0.0
27/07:30pm 14.0 10.5 7.3 64 3.3 ESE 15 19 8 10 1024.1 1024.1 0.0
27/07:00pm 14.4 11.0 7.5 63 3.4 ESE 15 20 8 11 1023.9 1023.9 0.0
27/06:30pm 15.3 12.6 7.3 59 4.0 E 11 15 6 8 1023.8 1023.8 0.0
27/06:00pm 15.3 12.2 7.3 59 3.9 E 13 19 7 10 1023.5 1023.5 0.0
27/05:30pm 16.5 12.7 7.7 56 4.4 E 17 20 9 11 1023.3 1023.3 0.0
27/05:00pm 17.2 13.8 7.8 54 4.7 E 15 19 8 10 1023.5 1023.5 0.0
27/04:30pm 17.4 13.6 7.5 52 5.0 ENE 17 20 9 11 1023.3 1023.3 0.0
27/04:00pm 17.9 14.2 7.9 52 5.1 ENE 17 20 9 11 1023.2 1023.2 0.0
27/03:30pm 17.8 13.9 7.0 49 5.4 ENE 17 20 9 11 1023.3 1023.3 0.0
27/03:00pm 18.1 14.2 7.2 49 5.5 ENE 17 20 9 11 1023.4 1023.4 0.0
27/02:30pm 19.1 15.4 7.8 48 5.8 ENE 17 20 9 11 1023.4 1023.4 0.0
27/02:00pm 16.6 12.7 7.3 54 4.6 ENE 17 20 9 11 1023.2 1023.2 0.0
27/01:30pm 17.7 14.1 6.6 48 5.5 ENE 15 19 8 10 1023.2 1023.2 0.0
27/01:00pm 18.3 14.7 6.8 47 5.7 ENE 15 19 8 10 1023.3 1023.3 0.0
27/12:30pm 17.9 14.2 6.4 47 5.7 E 15 20 8 11 1023.2 1023.2 0.0
27/12:00pm 16.8 12.9 5.4 47 5.5 ESE 15 22 8 12 1023.3 1023.3 0.0
27/11:30am 16.7 12.6 6.2 50 5.1 ESE 17 20 9 11 1023.4 1023.4 0.0
27/11:00am 16.7 12.5 5.9 49 5.2 SE 17 22 9 12 1023.3 1023.3 0.0
27/10:30am 17.3 13.3 6.5 49 5.3 ESE 17 20 9 11 1023.3 1023.3 0.0
27/10:00am 17.4 12.9 6.0 47 5.5 SSE 19 24 10 13 1023.5 1023.5 0.0
27/09:30am 16.5 12.0 6.1 50 5.1 SSE 19 22 10 12 1023.6 1023.6 0.0
27/09:00am 15.6 11.1 6.1 53 4.6 S 19 24 10 13 1023.6 1023.6 0.0
27/08:30am 15.2 10.0 5.7 53 4.5 S 22 24 12 13 1023.4 1023.4 0.0
27/08:00am 14.3 9.6 5.9 57 4.0 S 20 22 11 12 1023.0 1023.0 0.0
27/07:30am 13.5 8.8 6.1 61 3.5 S 20 26 11 14 1022.7 1022.7 0.0
27/07:00am 12.1 7.7 6.4 68 2.7 SSW 19 24 10 13 1022.5 1022.5 0.0
27/06:30am 11.9 7.5 6.4 69 2.6 SSW 19 24 10 13 1022.2 1022.2 0.0
27/06:00am 10.7 6.1 5.7 71 2.3 SSW 19 22 10 12 1022.0 1022.0 0.0
27/05:30am 10.3 5.4 5.3 71 2.3 SSW 20 26 11 14 1021.8 1021.8 0.0
27/05:00am 10.4 4.7 5.0 69 2.4 SSW 24 28 13 15 1021.5 1021.5 0.0
27/04:30am 10.8 5.6 5.3 69 2.5 SSW 22 26 12 14 1021.2 1021.2 0.0
27/04:00am 11.2 5.1 4.7 64 2.9 S 26 32 14 17 1021.0 1021.0 0.0
27/03:30am 11.5 5.5 5.2 65 2.9 S 26 32 14 17 1020.7 1020.7 0.0
27/03:00am 11.7 5.4 5.6 66 2.8 S 28 32 15 17 1020.7 1020.7 0.0
27/02:30am 11.8 5.6 6.3 69 2.6 S 28 32 15 17 1020.6 1020.6 0.0
27/02:00am 11.3 6.0 8.5 83 1.4 S 26 32 14 17 1020.8 1020.8 0.0
27/01:30am 12.1 8.8 9.5 84 1.3 SSW 17 20 9 11 1020.7 1020.7 0.0
27/01:00am 12.8 9.5 9.6 81 1.6 S 17 20 9 11 1020.6 1020.6 0.0
27/12:30am 13.1 10.0 9.0 76 2.1 SSE 15 19 8 10 1020.7 1020.7 0.0
27/12:00am 13.3 9.9 9.2 76 2.1 SSE 17 20 9 11 1020.5 1020.5 0.0
 
Date/Time
EDT
Temp
°C
App
Temp
°C
Dew
Point
Rel
Hum
%
Delta-T
°C
Wind Press
QNH
hPa
Press
MSL
hPa
Rain
since 9 am
mm
Dir
 
Spd
km/h
Gust
km/h
Spd
kts
Gust
kts
26/11:30pm 13.1 9.3 9.0 76 2.1 SSE 19 22 10 12 1020.4 1020.4 0.0
26/11:00pm 13.2 9.7 8.9 75 2.2 SE 17 22 9 12 1020.3 1020.3 0.0
26/10:30pm 13.3 9.3 9.0 75 2.2 SSE 20 24 11 13 1020.3 1020.3 0.0
26/10:00pm 13.5 9.7 9.2 75 2.2 SE 19 22 10 12 1019.9 1019.9 0.0
26/09:30pm 13.6 9.8 9.1 74 2.3 SE 19 24 10 13 1019.5 1019.5 0.0
26/09:00pm 13.6 9.6 9.1 74 2.3 SE 20 28 11 15 1019.0 1019.0 0.0
26/08:30pm 13.8 9.9 9.3 74 2.3 SE 20 26 11 14 1018.6 1018.6 0.0
26/08:00pm 14.1 9.7 9.1 72 2.5 SE 22 30 12 16 1018.2 1018.2 0.0
26/07:30pm 14.5 10.2 9.3 71 2.7 SE 22 30 12 16 1018.0 1018.0 0.0
26/07:00pm 15.1 10.5 9.5 69 2.9 SE 24 32 13 17 1017.4 1017.4 0.0
26/06:30pm 15.2 10.5 9.1 67 3.1 SE 24 33 13 18 1017.0 1017.0 0.0
26/06:00pm 16.4 10.8 10.0 66 3.4 ESE 30 37 16 20 1016.5 1016.5 0.0
26/05:30pm 17.5 12.2 8.4 55 4.7 ESE 26 30 14 16 1016.1 1016.1 0.0
26/05:00pm 17.9 14.0 8.7 55 4.8 E 19 24 10 13 1016.0 1016.0 0.0
26/04:30pm 18.9 15.3 10.5 58 4.5 E 20 24 11 13 1015.9 1015.9 0.0
26/04:00pm 18.3 14.1 9.9 58 4.5 ENE 22 26 12 14 1015.6 1015.6 0.0
26/03:30pm 20.0 15.9 10.1 53 5.3 ENE 22 26 12 14 1015.5 1015.5 0.0
26/03:00pm 19.3 15.6 9.5 53 5.2 E 19 26 10 14 1015.4 1015.4 0.0
26/02:30pm 18.0 12.4 8.6 54 4.9 ESE 28 35 15 19 1015.2 1015.2 0.0
26/02:00pm 17.5 12.5 10.9 65 3.6 ESE 28 33 15 18 1014.8 1014.8 0.0
26/01:30pm 18.1 15.0 11.7 66 3.5 SE 19 28 10 15 1014.5 1014.5 0.0
26/01:00pm 20.6 16.1 11.5 56 5.0 SE 26 33 14 18 1014.0 1014.0 0.0
26/12:30pm 20.4 17.0 11.3 56 5.0 S 20 26 11 14 1013.5 1013.5 0.0
26/12:00pm 20.9 15.7 5.7 37 7.6 W 22 39 12 21 1013.3 1013.3 0.0
26/11:30am 20.8 15.5 6.7 40 7.1 W 24 35 13 19 1013.4 1013.4 0.0
26/11:00am 19.4 12.9 6.5 43 6.5 W 30 39 16 21 1013.5 1013.5 0.0
26/10:30am 18.6 11.9 7.4 48 5.7 W 32 41 17 22 1013.4 1013.4 0.0
26/10:00am 18.3 11.8 8.3 52 5.1 WNW 32 44 17 24 1013.5 1013.5 0.0
26/09:30am 17.6 12.2 9.5 59 4.2 W 28 44 15 24 1013.6 1013.6 0.0
26/09:00am 16.7 10.7 10.1 65 3.5 WNW 32 46 17 25 1013.5 1013.5 0.0
26/08:47am 16.6 10.6 10.2 66 3.4 W 32 50 17 27 1013.6 1013.6 0.0
26/08:30am 15.7 10.1 10.0 69 3.0 WNW 30 46 16 25 1013.6 1013.6 0.0
26/08:00am 14.6 8.3 9.6 72 2.6 W 33 48 18 26 1013.5 1013.5 0.0
26/07:30am 14.2 9.7 10.0 76 2.2 WNW 24 35 13 19 1013.3 1013.3 0.0
26/07:00am 13.5 9.1 10.3 81 1.7 WNW 24 37 13 20 1013.2 1013.2 0.0
26/06:30am 13.3 9.5 9.9 80 1.7 WNW 20 30 11 16 1013.1 1013.1 0.0
26/06:00am 13.0 9.2 9.8 81 1.6 WNW 20 30 11 16 1012.9 1012.9 0.0
26/05:30am 12.7 6.6 9.9 83 1.4 WNW 32 57 17 31 1012.6 1012.6 0.0
26/05:15am 12.9 7.2 9.7 81 1.6 WNW 30 48 16 26 1012.5 1012.5 0.0
26/05:00am 13.0 7.2 9.4 79 1.8 NW 30 43 16 23 1012.4 1012.4 0.0
26/04:30am 13.0 7.8 8.9 76 2.1 WNW 26 41 14 22 1012.6 1012.6 0.0
26/04:00am 12.8 7.5 8.5 75 2.1 WNW 26 39 14 21 1012.6 1012.6 0.0
26/03:30am 12.7 6.5 8.0 73 2.3 WNW 30 44 16 24 1012.8 1012.8 0.0
26/03:00am 12.7 6.4 7.4 70 2.6 WNW 30 56 16 30 1013.1 1013.1 0.0
26/02:59am 12.7 6.8 7.6 71 2.5 WNW 28 56 15 30 1013.1 1013.1 0.0
26/02:30am 11.9 7.7 7.4 74 2.2 WNW 19 28 10 15 1013.5 1013.5 0.0
26/02:00am 11.6 6.0 7.1 74 2.2 NW 26 33 14 18 1013.6 1013.6 0.0
26/01:30am 11.5 5.1 6.8 73 2.2 WNW 30 46 16 25 1013.6 1013.6 0.0
26/01:00am 11.3 6.9 6.6 73 2.2 WNW 19 33 10 18 1013.9 1013.9 0.0
26/12:30am 11.4 7.0 6.7 73 2.2 WNW 19 28 10 15 1014.3 1014.3 0.0
26/12:00am 11.9 5.9 7.0 72 2.3 WNW 28 39 15 21 1014.1 1014.1 0.0
 
Date/Time
EDT
Temp
°C
App
Temp
°C
Dew
Point
Rel
Hum
%
Delta-T
°C
Wind Press
QNH
hPa
Press
MSL
hPa
Rain
since 9 am
mm
Dir
 
Spd
km/h
Gust
km/h
Spd
kts
Gust
kts
25/11:30pm 11.9 7.6 7.0 72 2.3 W 19 28 10 15 1014.1 1014.1 0.0
25/11:00pm 12.1 8.1 6.8 70 2.5 NW 17 28 9 15 1014.3 1014.3 0.0
25/10:30pm 12.3 7.4 6.8 69 2.6 WNW 22 37 12 20 1014.1 1014.1 0.0
25/10:00pm 12.6 6.9 6.6 67 2.9 WNW 26 39 14 21 1014.2 1014.2 0.0
25/09:44pm 12.9 6.8 6.5 65 3.1 WNW 28 48 15 26 1013.9 1013.9 0.0
25/09:30pm 12.9 7.6 6.7 66 3.0 WNW 24 41 13 22 1013.8 1013.8 0.0
25/09:00pm 13.4 7.5 7.6 68 2.8 WNW 28 43 15 23 1013.3 1013.3 0.0
25/08:36pm 13.7 7.1 7.9 68 2.9 WNW 32 50 17 27 1013.0 1013.0 0.0
25/08:30pm 13.8 7.1 8.2 69 2.8 WNW 33 50 18 27 1012.9 1012.9 0.0
25/08:20pm 13.9 7.7 7.9 67 3.0 WNW 30 48 16 26 1012.8 1012.8 0.0
25/08:00pm 14.3 7.7 7.6 64 3.3 WNW 32 44 17 24 1012.4 1012.4 0.0
25/07:30pm 14.9 8.4 8.8 67 3.1 WNW 33 48 18 26 1012.1 1012.1 0.0
25/07:06pm 15.6 8.6 8.6 63 3.6 WNW 35 54 19 29 1011.6 1011.6 0.0
25/07:00pm 15.7 8.4 8.9 64 3.5 WNW 37 50 20 27 1011.5 1011.5 0.0
25/06:33pm 16.4 8.8 8.9 61 3.9 WNW 39 57 21 31 1011.1 1011.1 0.0
25/06:30pm 16.3 8.3 9.0 62 3.8 W 41 57 22 31 1011.1 1011.1 0.0
25/06:19pm 16.4 7.8 8.9 61 3.9 WNW 44 63 24 34 1010.9 1010.9 0.0

Other Formats:

Comma delimited format used in spreadsheet applications
http://www.bom.gov.au/fwo/IDT60801/IDT60801.94983.axf

JavaScript Object Notation format (JSON) in row-major order
http://www.bom.gov.au/fwo/IDT60801/IDT60801.94983.json